Durham, NC

9:55 PM EST en Noviembre 27, 2014 (GMT -0500)
Trinity Park | Change Station
CLOSE
Current Station
Estación meteorológica personal
Location: Durham, NC
Altura: 400 ft
Estaciones meteorológicas cercanas

Alt 400 ft 36.01 °N, 78.91 °W | Updated 1 second ago

Parcialmente nublado
Parcialmente nublado
37.4 ° F
Sensación térmica 37 ° F
N
0.0
Viento Variable Viento desde NNO
Gusts 1.0 mph

Hoy
Alta -- | Baja -- ° F
--% Posibilidad de precipitaciones
Ayer
Alta -- | Baja -- ° F
Precip. -- pul
7:03 AM 5:02 PM
Creciente, 35% visible
Presión 30.25 pul
Visibilidad 10.0 Millas
Nubes Nubes dispersas 5000 ft
Vientos helados 37 ° F
Punto de rocío 29 ° F
Humedad 72%
Precipitaciones 0.15 pul
Espesor de la nieve No disponible.
UV 0 de una escala de 12
Polen .10 de una escala de 12
Calidad del aire No disponible.
Flu Activity No disponible.
METAR KRDU 280251Z VRB04KT 10SM SCT050 04/M04 A3024 RMK AO2 SLP241 T00391039 51021 $

More Conditions Fewer Conditions

Presión 30.25 pul
Visibilidad 10.0 Millas
Nubes Nubes dispersas 5000 ft
Vientos helados 37 ° F
Punto de rocío 29 ° F
Humedad 72%
Precipitaciones 0.15 pul
Espesor de la nieve No disponible.
UV 0 de una escala de 12
Polen .10 de una escala de 12
Calidad del aire No disponible.
Flu Activity No disponible.
METAR KRDU 280251Z VRB04KT 10SM SCT050 04/M04 A3024 RMK AO2 SLP241 T00391039 51021 $

More Conditions Fewer Conditions

10-Day Weather Forecast

Almanac

Astronomía

Nov. 27, 2014 Salida Puesta
Hora real
Crepúsculo civil
Crepúsculo náutico
Crepúsculo astronómico
Luna
Horas de luz
Horas de luz
Tomorrow will be .
, % of the Moon is Illuminated

Extremos de hoy

Máximos del estado Bajos del estado

Community

WunderPhotos

Upload Photos

1,774,164 ¡fotos cargadas!

WunderBlogs® & News

Nearby

Calidad del aire

  Calidad del aire Índice AQ Contaminante
Not available.

Grosos de nieve

Estación Profundido Altura

Actividad de terremotos

Ciudad Distance Mag. Tiempo y dato
Magnitud mínima muestra es 2,5.

Temperaturas de aguas costeras

Lugar Temperatura

Estaciones meteorológicas cercanas